Time;durP1;ratioP1;P1;durP2;ratioP2;P2;SDS_P1;SDS_P2;PMS_P1;PMS_P2;Temp;Humidity;BMP_temperature;BMP_pressure;BME280_temperature;BME280_humidity;BME280_pressure;Samples;Min_cycle;Max_cycle;Signal;HPM_P1;HPM_P2
2023/01/22 00:02:02;;;;;;;2.60;2.43;;;0.90;99.90;;;;;;5046524;28;20196;-66
2023/01/22 00:04:29;;;;;;;2.20;2.10;;;0.90;99.90;;;;;;5046472;28;20753;-65
2023/01/22 00:06:57;;;;;;;2.10;2.00;;;1.00;99.90;;;;;;5046953;28;20279;-66
2023/01/22 00:09:24;;;;;;;2.10;2.00;;;1.00;99.90;;;;;;5052402;28;20262;-65
2023/01/22 00:11:52;;;;;;;2.30;2.20;;;1.00;99.90;;;;;;5064127;28;20247;-65
2023/01/22 00:14:19;;;;;;;1.90;1.80;;;1.00;99.90;;;;;;5050859;28;20204;-64
2023/01/22 00:16:46;;;;;;;2.20;2.10;;;1.00;99.90;;;;;;5047479;28;20216;-65
2023/01/22 00:19:12;;;;;;;2.30;2.20;;;1.00;99.90;;;;;;5047620;28;20200;-66
2023/01/22 00:21:39;;;;;;;2.13;2.03;;;1.00;99.90;;;;;;5050063;28;20603;-67
2023/01/22 00:24:08;;;;;;;2.20;2.10;;;1.10;99.90;;;;;;5059004;28;20200;-65
2023/01/22 00:26:36;;;;;;;2.13;2.03;;;0.80;99.90;;;;;;5055294;28;20191;-66
2023/01/22 00:29:03;;;;;;;2.20;2.10;;;0.70;99.90;;;;;;5062368;28;20225;-67
2023/01/22 00:31:30;;;;;;;2.57;2.47;;;0.60;99.90;;;;;;5062965;28;20322;-66
2023/01/22 00:33:57;;;;;;;2.20;2.10;;;0.60;99.90;;;;;;5061179;28;20196;-66
2023/01/22 00:36:24;;;;;;;2.40;2.30;;;0.60;99.90;;;;;;5060847;28;20207;-66
2023/01/22 00:38:51;;;;;;;2.00;1.90;;;0.60;99.90;;;;;;5063172;28;20203;-64
2023/01/22 00:41:20;;;;;;;2.43;2.23;;;0.60;99.90;;;;;;5064268;28;20218;-66
2023/01/22 00:43:48;;;;;;;2.00;1.90;;;0.60;99.90;;;;;;5064529;28;20199;-67
2023/01/22 00:46:16;;;;;;;2.40;2.30;;;0.60;99.90;;;;;;5069590;28;20200;-65
2023/01/22 00:48:45;;;;;;;2.03;1.93;;;0.60;99.90;;;;;;5075337;28;20204;-64
2023/01/22 00:51:13;;;;;;;2.43;2.33;;;0.70;99.90;;;;;;5074614;28;20242;-66
2023/01/22 00:53:42;;;;;;;2.00;1.90;;;0.70;99.90;;;;;;5072537;28;20576;-66
2023/01/22 00:56:09;;;;;;;2.37;2.27;;;0.70;99.90;;;;;;5065982;28;20611;-66
2023/01/22 00:58:37;;;;;;;2.08;1.98;;;0.70;99.90;;;;;;5071514;28;20346;-65
2023/01/22 01:01:05;;;;;;;2.58;2.47;;;0.70;99.90;;;;;;5078744;28;20238;-66
2023/01/22 01:03:32;;;;;;;2.03;1.92;;;0.80;99.90;;;;;;5074546;28;20207;-66
2023/01/22 01:06:01;;;;;;;2.10;2.00;;;0.80;99.90;;;;;;5072139;28;20207;-64
2023/01/22 01:08:29;;;;;;;2.33;2.23;;;0.90;99.90;;;;;;5074406;28;20576;-66
2023/01/22 01:10:57;;;;;;;1.93;1.83;;;0.90;99.90;;;;;;5074397;28;20235;-66
2023/01/22 01:13:24;;;;;;;2.20;2.10;;;1.00;99.90;;;;;;5066102;28;20208;-65
2023/01/22 01:15:59;;;;;;;2.07;1.97;;;1.00;99.90;;;;;;5067281;28;20203;-67
2023/01/22 01:18:26;;;;;;;2.00;1.90;;;1.00;99.90;;;;;;5072368;28;20659;-67
2023/01/22 01:20:54;;;;;;;1.87;1.77;;;1.00;99.90;;;;;;5072565;28;20223;-66
2023/01/22 01:23:21;;;;;;;2.10;2.00;;;1.00;99.90;;;;;;5072363;28;20221;-66
2023/01/22 01:25:48;;;;;;;1.80;1.70;;;1.00;99.90;;;;;;5072368;28;20210;-65
2023/01/22 01:28:15;;;;;;;2.23;2.13;;;1.00;99.90;;;;;;5072812;28;20203;-65
2023/01/22 01:30:42;;;;;;;2.20;2.10;;;1.00;99.90;;;;;;5072578;28;20792;-68
2023/01/22 01:33:10;;;;;;;2.30;2.20;;;1.00;99.90;;;;;;5072433;28;20294;-66
2023/01/22 01:35:37;;;;;;;2.30;2.20;;;1.00;99.90;;;;;;5072192;28;20211;-66
2023/01/22 01:38:04;;;;;;;1.97;1.87;;;1.00;99.90;;;;;;5071651;28;20209;-66
2023/01/22 01:40:31;;;;;;;2.20;2.10;;;0.90;99.90;;;;;;5072191;28;20219;-66
2023/01/22 01:42:58;;;;;;;1.80;1.70;;;1.00;99.90;;;;;;5069979;28;20306;-63
2023/01/22 01:45:28;;;;;;;2.03;1.93;;;1.00;99.90;;;;;;5071391;28;20221;-66
2023/01/22 01:48:03;;;;;;;1.80;1.70;;;1.00;99.90;;;;;;5072883;28;20217;-65
2023/01/22 01:50:32;;;;;;;1.80;1.70;;;1.00;99.90;;;;;;5072277;28;20226;-67
2023/01/22 01:53:00;;;;;;;2.23;2.13;;;1.00;99.90;;;;;;5075245;28;20203;-65
2023/01/22 01:55:30;;;;;;;1.90;1.80;;;1.00;99.90;;;;;;5081758;28;20640;-66
2023/01/22 01:58:00;;;;;;;2.30;2.20;;;1.00;99.90;;;;;;5087659;28;20235;-67
2023/01/22 02:00:31;;;;;;;1.80;1.70;;;1.00;99.90;;;;;;5088789;28;20216;-65
2023/01/22 02:02:59;;;;;;;1.97;1.87;;;0.90;99.90;;;;;;5084129;28;20202;-67
2023/01/22 02:05:31;;;;;;;1.90;1.80;;;0.90;99.90;;;;;;5071482;28;20239;-68
2023/01/22 02:07:59;;;;;;;2.17;2.07;;;0.90;99.90;;;;;;5072102;28;20210;-66
2023/01/22 02:10:26;;;;;;;1.90;1.80;;;1.00;99.90;;;;;;5071507;28;20261;-67
2023/01/22 02:12:57;;;;;;;2.30;2.20;;;1.00;99.90;;;;;;5071611;28;20203;-66
2023/01/22 02:15:24;;;;;;;2.30;2.20;;;1.00;99.90;;;;;;5071282;28;20211;-66
2023/01/22 02:17:51;;;;;;;2.10;2.00;;;1.00;99.90;;;;;;5071467;28;20264;-66
2023/01/22 02:20:18;;;;;;;2.20;2.10;;;0.90;99.90;;;;;;5071070;28;20224;-66
2023/01/22 02:22:48;;;;;;;2.33;2.23;;;1.00;99.90;;;;;;5063483;28;20203;-65
2023/01/22 02:25:15;;;;;;;2.30;2.20;;;0.90;99.90;;;;;;5042926;28;20262;-63
2023/01/22 02:27:42;;;;;;;2.20;2.10;;;0.90;99.90;;;;;;5051243;28;20231;-64
2023/01/22 02:30:10;;;;;;;2.00;1.90;;;1.00;99.90;;;;;;5050316;28;20604;-65
2023/01/22 02:32:37;;;;;;;2.17;2.07;;;1.00;99.90;;;;;;5051780;28;20204;-64
2023/01/22 02:35:04;;;;;;;2.20;2.10;;;1.00;99.90;;;;;;5050975;28;20214;-66
2023/01/22 02:37:31;;;;;;;2.20;2.10;;;1.00;99.90;;;;;;5051510;28;20808;-65
2023/01/22 02:39:59;;;;;;;2.50;2.30;;;1.00;99.90;;;;;;5051866;28;20244;-67
2023/01/22 02:42:26;;;;;;;2.20;2.10;;;0.90;99.90;;;;;;5051617;28;20653;-66
2023/01/22 02:44:53;;;;;;;2.13;2.03;;;1.00;99.90;;;;;;5045108;28;20314;-64
2023/01/22 02:47:20;;;;;;;2.30;2.20;;;0.90;99.90;;;;;;5050470;28;20200;-64
2023/01/22 02:49:47;;;;;;;2.63;2.53;;;0.90;99.90;;;;;;5051619;28;20223;-65
2023/01/22 02:52:14;;;;;;;2.37;2.27;;;0.80;99.90;;;;;;5051925;28;20211;-66
2023/01/22 02:54:41;;;;;;;2.20;2.10;;;0.90;99.90;;;;;;5052720;28;20205;-66
2023/01/22 02:57:09;;;;;;;2.50;2.40;;;0.90;99.90;;;;;;5049843;28;20210;-66
2023/01/22 02:59:36;;;;;;;2.20;2.10;;;0.80;99.90;;;;;;5050419;28;20740;-66
2023/01/22 03:02:03;;;;;;;2.47;2.37;;;0.80;99.90;;;;;;5050275;28;20204;-65
2023/01/22 03:04:30;;;;;;;2.20;2.10;;;0.80;99.90;;;;;;5049558;28;20215;-65
2023/01/22 03:06:57;;;;;;;2.50;2.40;;;0.80;99.90;;;;;;5050303;28;20210;-65
2023/01/22 03:09:23;;;;;;;2.27;2.17;;;0.80;99.90;;;;;;5049939;28;20670;-64
2023/01/22 03:11:50;;;;;;;2.50;2.40;;;0.80;99.90;;;;;;5051441;28;20216;-64
2023/01/22 03:22:32;;;;;;;2.60;2.50;;;0.80;99.90;;;;;;5052218;28;20226;-64
2023/01/22 03:25:00;;;;;;;2.50;2.40;;;0.80;99.90;;;;;;5051600;28;20207;-64
2023/01/22 03:27:28;;;;;;;2.90;2.70;;;0.80;99.90;;;;;;5052599;28;20203;-64
2023/01/22 03:29:56;;;;;;;2.60;2.50;;;0.80;99.90;;;;;;5051995;28;21175;-63
2023/01/22 03:32:23;;;;;;;2.50;2.40;;;0.80;99.90;;;;;;5051249;28;20813;-66
2023/01/22 03:34:51;;;;;;;2.57;2.47;;;0.80;99.90;;;;;;5067427;28;20208;-70
2023/01/22 03:37:17;;;;;;;2.70;2.60;;;0.80;99.90;;;;;;5053831;28;20634;-66
2023/01/22 03:39:44;;;;;;;2.33;2.23;;;0.80;99.90;;;;;;5050102;28;20208;-66
2023/01/22 03:42:11;;;;;;;2.73;2.63;;;0.90;99.90;;;;;;5051082;28;20204;-64
2023/01/22 03:44:38;;;;;;;2.80;2.70;;;0.80;99.90;;;;;;5064603;28;20242;-65
2023/01/22 03:47:06;;;;;;;2.70;2.60;;;0.90;99.90;;;;;;5055513;28;20204;-65
2023/01/22 03:49:33;;;;;;;2.50;2.40;;;1.00;99.90;;;;;;5051424;28;20662;-65
2023/01/22 03:52:00;;;;;;;2.40;2.30;;;1.00;99.90;;;;;;5050965;28;20295;-66
2023/01/22 03:54:26;;;;;;;2.43;2.33;;;1.10;99.90;;;;;;5051302;28;20208;-66
2023/01/22 03:56:53;;;;;;;2.30;2.20;;;1.10;99.90;;;;;;5053040;28;20200;-65
2023/01/22 03:59:20;;;;;;;2.33;2.23;;;1.10;99.90;;;;;;5054758;28;20208;-67
2023/01/22 04:01:47;;;;;;;2.47;2.37;;;1.20;99.90;;;;;;5054826;28;20228;-65
2023/01/22 04:04:15;;;;;;;2.30;2.20;;;1.20;99.90;;;;;;5054991;28;20207;-66
2023/01/22 04:06:42;;;;;;;2.37;2.27;;;1.10;99.90;;;;;;5054390;28;20214;-68
2023/01/22 04:09:09;;;;;;;2.40;2.30;;;1.10;99.90;;;;;;5050726;28;20658;-65
2023/01/22 04:11:36;;;;;;;2.40;2.30;;;1.20;99.90;;;;;;5059500;28;20237;-67
2023/01/22 04:14:02;;;;;;;2.50;2.40;;;1.20;99.90;;;;;;5055957;28;20200;-64
2023/01/22 04:16:29;;;;;;;2.67;2.57;;;1.20;99.90;;;;;;5063602;28;20302;-66
2023/01/22 04:18:56;;;;;;;2.50;2.40;;;1.20;99.90;;;;;;5063502;28;20223;-67
2023/01/22 04:21:24;;;;;;;2.43;2.33;;;1.20;99.90;;;;;;5067609;28;20289;-65
2023/01/22 04:23:51;;;;;;;2.83;2.63;;;1.20;99.90;;;;;;5063795;28;20199;-66
2023/01/22 04:26:18;;;;;;;2.60;2.50;;;1.30;99.90;;;;;;5063043;28;20210;-64
2023/01/22 04:28:45;;;;;;;2.27;2.17;;;1.30;99.90;;;;;;5064343;28;20196;-63
2023/01/22 04:31:12;;;;;;;2.33;2.23;;;1.30;99.90;;;;;;5066553;28;20232;-65
2023/01/22 04:33:38;;;;;;;2.43;2.33;;;1.30;99.90;;;;;;5059057;28;20208;-65
2023/01/22 04:36:06;;;;;;;2.70;2.50;;;1.30;99.90;;;;;;5058482;28;20571;-66
2023/01/22 04:38:34;;;;;;;2.10;2.00;;;1.30;99.90;;;;;;5063127;28;20196;-66
2023/01/22 04:41:01;;;;;;;2.57;2.47;;;1.40;99.90;;;;;;5046988;28;20297;-66
2023/01/22 04:43:27;;;;;;;2.23;2.13;;;1.30;99.90;;;;;;5052437;28;20654;-64
2023/01/22 04:45:54;;;;;;;2.40;2.30;;;1.40;99.90;;;;;;5061124;28;20203;-66
2023/01/22 04:48:21;;;;;;;2.60;2.43;;;1.40;99.90;;;;;;5063181;28;20211;-65
2023/01/22 04:50:48;;;;;;;2.60;2.50;;;1.40;99.90;;;;;;5058591;28;20600;-64
2023/01/22 04:53:14;;;;;;;2.70;2.60;;;1.40;99.90;;;;;;5056909;28;20287;-67
2023/01/22 04:55:43;;;;;;;2.47;2.37;;;1.40;99.90;;;;;;5052046;28;20291;-66
2023/01/22 04:58:09;;;;;;;2.70;2.60;;;1.40;99.90;;;;;;5052660;28;20214;-66
2023/01/22 05:00:37;;;;;;;2.53;2.43;;;1.40;99.90;;;;;;5052258;28;20785;-64
2023/01/22 05:03:04;;;;;;;2.60;2.50;;;1.40;99.90;;;;;;5052511;28;20204;-66
2023/01/22 05:05:32;;;;;;;2.43;2.33;;;1.40;99.90;;;;;;5051760;28;20206;-65
2023/01/22 05:07:59;;;;;;;2.50;2.40;;;1.40;99.90;;;;;;5051547;28;20218;-67
2023/01/22 05:10:26;;;;;;;2.83;2.63;;;1.40;99.90;;;;;;5051674;28;20512;-65
2023/01/22 05:12:55;;;;;;;2.53;2.43;;;1.50;99.90;;;;;;5053923;28;20215;-64
2023/01/22 05:15:22;;;;;;;2.97;2.77;;;1.50;99.90;;;;;;5054963;28;20212;-65
2023/01/22 05:17:48;;;;;;;2.30;2.20;;;1.40;99.90;;;;;;5054963;28;20207;-66
2023/01/22 05:20:16;;;;;;;2.50;2.40;;;1.50;99.90;;;;;;5055098;28;20228;-64
2023/01/22 05:22:43;;;;;;;2.80;2.70;;;1.50;99.90;;;;;;5053764;28;20207;-66
2023/01/22 05:25:10;;;;;;;3.10;2.90;;;1.50;99.90;;;;;;5052352;28;20215;-64
2023/01/22 05:27:36;;;;;;;2.47;2.37;;;1.40;99.90;;;;;;5042901;28;20215;-66
2023/01/22 05:30:06;;;;;;;2.40;2.30;;;1.30;99.90;;;;;;5056524;28;20228;-66
2023/01/22 05:32:33;;;;;;;2.40;2.30;;;1.20;99.90;;;;;;5065107;28;20200;-67
2023/01/22 05:35:00;;;;;;;2.73;2.53;;;1.30;99.90;;;;;;5057024;28;20562;-65
2023/01/22 05:37:27;;;;;;;2.47;2.37;;;1.30;99.90;;;;;;5053215;28;20211;-66
2023/01/22 05:39:54;;;;;;;2.77;2.60;;;1.30;99.90;;;;;;5050937;28;20204;-66
2023/01/22 05:42:20;;;;;;;2.97;2.78;;;1.40;99.90;;;;;;5053567;28;20208;-66
2023/01/22 05:44:47;;;;;;;2.97;2.77;;;1.40;99.90;;;;;;5053314;28;20211;-66
2023/01/22 05:47:16;;;;;;;3.10;2.90;;;1.40;99.90;;;;;;5053740;28;20579;-67
2023/01/22 05:49:43;;;;;;;3.20;3.00;;;1.40;99.90;;;;;;5056275;28;20290;-64
2023/01/22 05:52:10;;;;;;;2.63;2.53;;;1.40;99.90;;;;;;5053518;28;20224;-67
2023/01/22 05:54:38;;;;;;;2.90;2.80;;;1.40;99.90;;;;;;5063889;28;20212;-65
2023/01/22 05:57:05;;;;;;;3.20;3.00;;;1.40;99.90;;;;;;5054261;28;20212;-66
2023/01/22 05:59:32;;;;;;;3.10;2.90;;;1.50;99.90;;;;;;5051983;28;20226;-65
2023/01/22 06:01:59;;;;;;;2.80;2.60;;;1.40;99.90;;;;;;5051720;28;20906;-66
2023/01/22 06:04:27;;;;;;;2.53;2.43;;;1.40;99.90;;;;;;5051551;28;20298;-65
2023/01/22 06:06:54;;;;;;;2.90;2.80;;;1.50;99.90;;;;;;5050630;28;20204;-66
2023/01/22 06:09:21;;;;;;;2.87;2.67;;;1.60;99.90;;;;;;5051182;28;20661;-66
2023/01/22 06:11:48;;;;;;;2.50;2.40;;;1.60;99.90;;;;;;5050947;28;20227;-64
2023/01/22 06:14:15;;;;;;;3.00;2.80;;;1.60;99.90;;;;;;5051131;28;20261;-65
2023/01/22 06:16:42;;;;;;;2.70;2.60;;;1.60;99.90;;;;;;5050560;28;20204;-65
2023/01/22 06:19:09;;;;;;;2.97;2.80;;;1.60;99.90;;;;;;5050789;28;20219;-65
2023/01/22 06:21:37;;;;;;;2.90;2.70;;;1.60;99.90;;;;;;5051197;28;20224;-66
2023/01/22 06:24:04;;;;;;;2.87;2.73;;;1.70;99.90;;;;;;5051593;28;20207;-64
2023/01/22 06:26:31;;;;;;;3.03;2.83;;;1.60;99.90;;;;;;5049553;28;20199;-66
2023/01/22 06:28:59;;;;;;;2.90;2.73;;;1.60;99.90;;;;;;5053145;28;20227;-66
2023/01/22 06:31:26;;;;;;;2.80;2.63;;;1.60;99.90;;;;;;5053375;28;20291;-66
2023/01/22 06:33:53;;;;;;;2.90;2.80;;;1.60;99.90;;;;;;5053367;28;20234;-65
2023/01/22 06:36:20;;;;;;;2.63;2.53;;;1.70;99.90;;;;;;5052628;28;20585;-65
2023/01/22 06:38:48;;;;;;;2.93;2.73;;;1.70;99.90;;;;;;5052707;28;20208;-66
2023/01/22 06:41:15;;;;;;;2.80;2.70;;;1.70;99.90;;;;;;5052454;28;20230;-66
2023/01/22 06:43:42;;;;;;;3.47;3.27;;;1.70;99.90;;;;;;5051775;28;20210;-67
2023/01/22 06:46:09;;;;;;;3.10;3.00;;;1.70;99.90;;;;;;5050411;28;20204;-64
2023/01/22 06:48:36;;;;;;;3.07;2.90;;;1.60;99.90;;;;;;5051109;28;20204;-65
2023/01/22 06:51:02;;;;;;;2.97;2.80;;;1.70;99.90;;;;;;5050252;28;20596;-65
2023/01/22 06:53:29;;;;;;;3.10;2.90;;;1.70;99.90;;;;;;5050871;28;20299;-65
2023/01/22 06:56:00;;;;;;;3.20;3.00;;;1.80;99.90;;;;;;5049873;28;20204;-67
2023/01/22 06:58:27;;;;;;;3.50;3.30;;;2.00;99.90;;;;;;5050786;28;20299;-66
2023/01/22 07:00:54;;;;;;;3.67;3.43;;;2.00;99.90;;;;;;5050192;28;20254;-65
2023/01/22 07:03:21;;;;;;;3.13;2.93;;;2.10;99.90;;;;;;5049987;28;20212;-67
2023/01/22 07:05:55;;;;;;;3.07;2.87;;;2.10;99.90;;;;;;5049526;28;20207;-66
2023/01/22 07:08:22;;;;;;;3.25;3.05;;;2.10;99.90;;;;;;5050805;28;20204;-67
2023/01/22 07:10:49;;;;;;;3.53;3.23;;;2.10;99.90;;;;;;5050195;28;20223;-66
2023/01/22 07:13:17;;;;;;;3.03;2.93;;;2.20;99.90;;;;;;5049567;28;20204;-67
2023/01/22 07:15:44;;;;;;;3.23;3.03;;;2.00;99.90;;;;;;5051978;28;20208;-66
2023/01/22 07:18:13;;;;;;;2.90;2.80;;;2.10;99.90;;;;;;5067682;28;20259;-66
2023/01/22 07:20:40;;;;;;;3.10;2.90;;;2.00;99.90;;;;;;5063900;28;20236;-64
2023/01/22 07:23:07;;;;;;;2.93;2.73;;;1.90;99.90;;;;;;5052726;28;20204;-65
2023/01/22 07:25:34;;;;;;;3.20;3.00;;;1.90;99.90;;;;;;5048206;28;20208;-65
2023/01/22 07:28:04;;;;;;;2.83;2.63;;;2.00;99.90;;;;;;5050017;28;20681;-66
2023/01/22 07:30:32;;;;;;;3.20;3.00;;;2.20;99.90;;;;;;5050783;28;20299;-67
2023/01/22 07:32:59;;;;;;;3.20;3.00;;;2.20;99.90;;;;;;5067982;28;20566;-66
2023/01/22 07:35:27;;;;;;;2.83;2.73;;;2.20;99.90;;;;;;5064771;28;20209;-67
2023/01/22 07:37:54;;;;;;;3.40;3.20;;;2.20;99.90;;;;;;5052014;28;20199;-65
2023/01/22 07:40:23;;;;;;;3.07;2.97;;;2.20;99.90;;;;;;5048162;28;20223;-64
2023/01/22 07:42:49;;;;;;;2.87;2.73;;;2.30;99.90;;;;;;5052768;28;20291;-67
2023/01/22 07:45:18;;;;;;;3.07;2.93;;;2.30;99.90;;;;;;5050634;28;20196;-66
2023/01/22 07:47:53;;;;;;;3.23;3.03;;;2.30;99.90;;;;;;5050830;28;20203;-66
2023/01/22 07:50:20;;;;;;;2.90;2.80;;;2.30;99.90;;;;;;5050051;28;20276;-66
2023/01/22 07:52:47;;;;;;;3.07;2.87;;;2.20;99.90;;;;;;5050283;28;20230;-67
2023/01/22 07:55:14;;;;;;;3.20;3.00;;;2.30;99.90;;;;;;5049567;28;20218;-67
2023/01/22 07:57:41;;;;;;;3.30;3.10;;;2.20;99.90;;;;;;5050269;28;20567;-66
2023/01/22 08:00:11;;;;;;;3.40;3.17;;;2.30;99.90;;;;;;5049856;28;20230;-68
2023/01/22 08:02:40;;;;;;;3.60;3.40;;;2.20;99.90;;;;;;5049643;28;20614;-65
2023/01/22 08:05:12;;;;;;;3.33;3.13;;;2.20;99.90;;;;;;5049219;28;21180;-65
2023/01/22 08:07:39;;;;;;;3.10;2.90;;;2.20;99.90;;;;;;5049811;28;20222;-66
2023/01/22 08:10:07;;;;;;;3.37;3.17;;;2.20;99.90;;;;;;5050130;28;20228;-65
2023/01/22 08:12:35;;;;;;;3.67;3.47;;;2.20;99.90;;;;;;5050326;28;20584;-66
2023/01/22 08:15:02;;;;;;;3.37;3.17;;;2.30;99.90;;;;;;5054324;28;20204;-66
2023/01/22 08:17:29;;;;;;;3.50;3.30;;;2.40;99.90;;;;;;5057842;28;20212;-67
2023/01/22 08:19:55;;;;;;;3.57;3.37;;;2.50;99.90;;;;;;5050507;28;20214;-65
2023/01/22 08:22:24;;;;;;;3.37;3.17;;;2.60;99.90;;;;;;5050547;28;20200;-67
2023/01/22 08:24:50;;;;;;;4.00;3.73;;;2.60;99.90;;;;;;5050105;28;20631;-67
2023/01/22 08:27:17;;;;;;;3.57;3.37;;;2.50;99.90;;;;;;5050649;28;20210;-67
2023/01/22 08:29:44;;;;;;;3.17;2.97;;;2.50;99.90;;;;;;5050580;28;20235;-66
2023/01/22 08:32:11;;;;;;;3.47;3.27;;;2.40;99.90;;;;;;5050509;28;20238;-65
2023/01/22 08:34:38;;;;;;;3.37;3.17;;;2.40;99.90;;;;;;5055813;28;20200;-67
2023/01/22 08:37:05;;;;;;;3.50;3.30;;;2.40;99.90;;;;;;5067818;28;20211;-67
2023/01/22 08:39:33;;;;;;;2.83;2.70;;;2.40;99.90;;;;;;5062106;28;20291;-66
2023/01/22 08:41:59;;;;;;;3.50;3.30;;;2.40;99.90;;;;;;5061678;28;20701;-66
2023/01/22 08:44:27;;;;;;;3.23;3.03;;;2.50;99.90;;;;;;5062728;28;20682;-65
2023/01/22 08:46:53;;;;;;;2.90;2.70;;;2.40;99.90;;;;;;5065581;28;20196;-65
2023/01/22 08:49:21;;;;;;;3.47;3.27;;;2.40;99.90;;;;;;5065756;28;20226;-64
2023/01/22 08:51:49;;;;;;;3.50;3.30;;;2.50;99.90;;;;;;5059357;28;20223;-66
2023/01/22 08:54:16;;;;;;;2.90;2.80;;;2.40;99.90;;;;;;5062735;28;20708;-67
2023/01/22 08:56:45;;;;;;;3.20;3.00;;;2.20;99.90;;;;;;5063056;28;20200;-68
2023/01/22 08:59:12;;;;;;;3.10;3.00;;;2.30;99.90;;;;;;5064648;28;20608;-65
2023/01/22 09:01:39;;;;;;;3.30;3.10;;;2.30;99.90;;;;;;5054489;28;20287;-66
2023/01/22 09:04:09;;;;;;;3.10;2.90;;;2.30;99.90;;;;;;5061788;28;20208;-68
2023/01/22 09:06:37;;;;;;;3.27;3.07;;;2.30;99.90;;;;;;5067802;28;20214;-66
2023/01/22 09:09:05;;;;;;;3.17;2.97;;;2.40;99.90;;;;;;5056407;28;20214;-65
2023/01/22 09:11:32;;;;;;;3.23;3.03;;;2.40;99.90;;;;;;5056130;28;20254;-65
2023/01/22 09:14:01;;;;;;;3.67;3.47;;;2.40;99.90;;;;;;5053134;28;20208;-65
2023/01/22 09:16:28;;;;;;;3.13;2.93;;;2.30;99.90;;;;;;5052400;28;20257;-66
2023/01/22 09:18:55;;;;;;;3.23;3.03;;;2.30;99.90;;;;;;5053102;28;20220;-65
2023/01/22 09:21:21;;;;;;;3.30;3.10;;;2.20;99.90;;;;;;5057972;28;20231;-66
2023/01/22 09:23:48;;;;;;;2.93;2.83;;;2.20;99.90;;;;;;5057896;28;20660;-65
2023/01/22 09:26:15;;;;;;;3.47;3.27;;;2.30;99.90;;;;;;5055880;28;20200;-68
2023/01/22 09:28:42;;;;;;;3.60;3.40;;;2.20;99.90;;;;;;5057354;28;20204;-65
2023/01/22 09:31:12;;;;;;;3.20;3.00;;;2.20;99.90;;;;;;5055352;28;20263;-66
2023/01/22 09:33:39;;;;;;;3.67;3.47;;;2.30;99.90;;;;;;5054615;28;20232;-68
2023/01/22 09:36:08;;;;;;;3.47;3.27;;;2.30;99.90;;;;;;5054248;28;20267;-64
2023/01/22 09:38:35;;;;;;;3.80;3.60;;;2.30;99.90;;;;;;5054694;28;20211;-67
2023/01/22 09:41:05;;;;;;;3.17;2.97;;;2.20;99.90;;;;;;5055009;28;20714;-65
2023/01/22 09:43:35;;;;;;;3.10;2.90;;;2.30;99.90;;;;;;5056452;28;20290;-67
2023/01/22 09:46:07;;;;;;;3.23;3.03;;;2.40;99.90;;;;;;5058687;28;20213;-66
2023/01/22 09:48:39;;;;;;;2.90;2.80;;;2.50;99.90;;;;;;5061963;28;20686;-64
2023/01/22 09:51:07;;;;;;;2.90;2.80;;;2.60;99.90;;;;;;5054196;28;20224;-67
2023/01/22 09:53:34;;;;;;;3.10;2.90;;;2.60;99.90;;;;;;5060124;28;20231;-65
2023/01/22 09:56:04;;;;;;;3.00;2.90;;;2.60;99.90;;;;;;5060483;28;20219;-67
2023/01/22 09:58:34;;;;;;;2.33;2.23;;;2.60;99.90;;;;;;5061974;28;20204;-65
2023/01/22 10:01:03;;;;;;;2.33;2.23;;;2.70;99.90;;;;;;5053983;28;20226;-67
2023/01/22 10:03:34;;;;;;;2.63;2.53;;;2.70;99.90;;;;;;5057720;28;20200;-66
2023/01/22 10:06:08;;;;;;;2.80;2.70;;;2.80;99.90;;;;;;5054019;28;20291;-67
2023/01/22 10:08:41;;;;;;;2.73;2.63;;;2.90;99.90;;;;;;5062262;28;20276;-65
2023/01/22 10:11:09;;;;;;;2.53;2.43;;;2.70;99.90;;;;;;5066777;28;20215;-64
2023/01/22 10:13:38;;;;;;;2.63;2.53;;;2.80;99.90;;;;;;5063963;28;20315;-65
2023/01/22 10:16:06;;;;;;;2.40;2.30;;;2.80;99.90;;;;;;5060546;28;20195;-67
2023/01/22 10:18:39;;;;;;;3.00;2.90;;;2.90;99.90;;;;;;5062700;28;20204;-66
2023/01/22 10:21:16;;;;;;;2.80;2.70;;;2.80;99.90;;;;;;5062474;28;20664;-65
2023/01/22 10:23:43;;;;;;;2.90;2.80;;;2.70;99.90;;;;;;5061992;28;20204;-68
2023/01/22 10:26:16;;;;;;;2.63;2.50;;;2.70;99.90;;;;;;5064451;28;20200;-66
2023/01/22 10:28:45;;;;;;;2.63;2.53;;;2.70;99.90;;;;;;5064797;28;20209;-66
2023/01/22 10:31:24;;;;;;;2.50;2.40;;;2.80;99.90;;;;;;5062255;28;20694;-66
2023/01/22 10:33:57;;;;;;;2.80;2.60;;;2.80;99.90;;;;;;5059949;28;20720;-66
2023/01/22 10:36:25;;;;;;;2.40;2.30;;;2.80;99.90;;;;;;5060030;28;20211;-66
2023/01/22 10:39:04;;;;;;;2.43;2.33;;;2.90;99.90;;;;;;5061537;28;20229;-65
2023/01/22 10:41:31;;;;;;;2.40;2.30;;;3.00;99.90;;;;;;5061693;28;20219;-65
2023/01/22 10:44:16;;;;;;;3.03;2.83;;;3.00;99.90;;;;;;5062105;28;20244;-67
2023/01/22 10:46:45;;;;;;;2.37;2.27;;;3.00;99.90;;;;;;5058636;28;20210;-65
2023/01/22 10:49:15;;;;;;;2.30;2.20;;;3.10;99.90;;;;;;5057886;28;20565;-66
2023/01/22 10:51:49;;;;;;;2.53;2.43;;;3.10;99.90;;;;;;5059036;28;20223;-66
2023/01/22 10:54:21;;;;;;;2.70;2.60;;;3.20;99.90;;;;;;5068844;28;20263;-67
2023/01/22 10:56:49;;;;;;;2.50;2.40;;;3.20;99.90;;;;;;5063717;28;20209;-66
2023/01/22 10:59:21;;;;;;;6.13;5.73;;;3.30;99.90;;;;;;5062403;28;20208;-65
2023/01/22 11:01:49;;;;;;;2.60;2.50;;;3.40;99.90;;;;;;5053517;28;20227;-66
2023/01/22 11:04:22;;;;;;;2.50;2.40;;;3.40;99.90;;;;;;5061696;28;20297;-66
2023/01/22 11:06:54;;;;;;;5.47;5.10;;;3.30;99.90;;;;;;5053511;28;20203;-66
2023/01/22 11:09:25;;;;;;;4.67;4.37;;;3.40;99.90;;;;;;5059722;28;20249;-68
2023/01/22 11:11:59;;;;;;;2.50;2.40;;;3.40;99.90;;;;;;5051295;28;20250;-66
2023/01/22 11:14:29;;;;;;;2.47;2.37;;;3.30;99.90;;;;;;5051265;28;20196;-66
2023/01/22 11:17:02;;;;;;;2.03;1.93;;;3.40;99.90;;;;;;5050356;28;20202;-68
2023/01/22 11:19:38;;;;;;;2.60;2.50;;;3.40;99.90;;;;;;5048515;28;20303;-66
2023/01/22 11:22:23;;;;;;;2.50;2.40;;;3.30;99.90;;;;;;5050654;28;20205;-67
2023/01/22 11:24:49;;;;;;;2.20;2.10;;;3.20;99.90;;;;;;5050452;28;20219;-65
2023/01/22 11:27:39;;;;;;;2.30;2.20;;;3.40;99.90;;;;;;5050978;28;20206;-65
2023/01/22 11:30:34;;;;;;;2.23;2.13;;;3.40;99.90;;;;;;5050286;28;20223;-65
2023/01/22 11:33:07;;;;;;;2.60;2.50;;;3.40;99.90;;;;;;5051932;28;20223;-67
2023/01/22 11:35:41;;;;;;;2.67;2.57;;;3.30;99.90;;;;;;5057241;28;20684;-65
2023/01/22 11:38:22;;;;;;;2.80;2.70;;;3.10;99.90;;;;;;5061689;28;20589;-66
2023/01/22 11:41:04;;;;;;;2.10;2.00;;;3.10;99.90;;;;;;5054399;28;20219;-64
2023/01/22 11:43:54;;;;;;;2.07;1.97;;;3.10;99.90;;;;;;5056979;28;21276;-64
2023/01/22 11:46:41;;;;;;;2.30;2.20;;;3.10;99.90;;;;;;5056737;28;20662;-64
2023/01/22 11:49:18;;;;;;;2.40;2.30;;;3.10;99.90;;;;;;5058381;28;20310;-63
2023/01/22 11:51:56;;;;;;;2.30;2.20;;;3.00;99.90;;;;;;5054328;28;20250;-65
2023/01/22 11:54:37;;;;;;;2.27;2.17;;;3.00;99.90;;;;;;5053185;28;20254;-65
2023/01/22 11:57:16;;;;;;;2.30;2.20;;;3.00;99.90;;;;;;5051583;28;20210;-67
2023/01/22 12:00:15;;;;;;;2.10;2.00;;;3.10;99.90;;;;;;5068253;28;20657;-66
2023/01/22 12:03:08;;;;;;;2.33;2.23;;;3.10;99.90;;;;;;5062209;28;20196;-65
2023/01/22 12:05:44;;;;;;;2.10;2.00;;;3.10;99.90;;;;;;5046461;28;20211;-65
2023/01/22 12:08:44;;;;;;;2.20;2.10;;;3.10;99.90;;;;;;5051493;28;20307;-66
2023/01/22 12:11:23;;;;;;;2.20;2.10;;;3.20;99.90;;;;;;5049309;28;20291;-65
2023/01/22 12:14:14;;;;;;;2.20;2.10;;;3.20;99.90;;;;;;5058898;28;20706;-67
2023/01/22 12:16:48;;;;;;;1.90;1.80;;;3.20;99.90;;;;;;5028519;28;20267;-66
2023/01/22 12:19:49;;;;;;;2.20;2.10;;;3.20;99.90;;;;;;5030789;28;20211;-66
2023/01/22 12:22:27;;;;;;;2.00;1.90;;;3.20;99.90;;;;;;5030091;28;20535;-66
2023/01/22 12:25:01;;;;;;;2.13;2.03;;;3.20;99.90;;;;;;5030769;28;20203;-68
2023/01/22 12:27:34;;;;;;;2.00;1.90;;;3.20;99.90;;;;;;5031264;28;20204;-65
2023/01/22 12:30:12;;;;;;;2.10;2.00;;;3.20;99.90;;;;;;5032475;28;20232;-67
2023/01/22 12:32:42;;;;;;;1.90;1.80;;;3.20;99.90;;;;;;5034892;28;20231;-66
2023/01/22 12:35:15;;;;;;;1.57;1.57;;;3.30;99.90;;;;;;5035294;28;20205;-65
2023/01/22 12:37:45;;;;;;;2.00;1.90;;;3.30;99.90;;;;;;5041421;28;20205;-68
2023/01/22 12:41:05;;;;;;;2.00;1.90;;;3.30;99.90;;;;;;5048351;28;20227;-67
2023/01/22 12:43:40;;;;;;;1.97;1.87;;;3.30;99.90;;;;;;5017559;28;20206;-64
2023/01/22 12:46:15;;;;;;;1.80;1.70;;;3.40;99.90;;;;;;5034950;28;20211;-65
2023/01/22 12:48:48;;;;;;;1.67;1.60;;;3.40;99.90;;;;;;5035997;28;20208;-65
2023/01/22 12:51:27;;;;;;;1.73;1.63;;;3.20;99.90;;;;;;5035477;28;20232;-64
2023/01/22 12:53:54;;;;;;;1.50;1.50;;;3.20;99.90;;;;;;5035522;28;20235;-66
2023/01/22 12:56:30;;;;;;;1.70;1.60;;;3.20;99.90;;;;;;5034876;28;20668;-65
2023/01/22 12:58:59;;;;;;;1.60;1.60;;;3.10;99.90;;;;;;5037391;28;20193;-65
2023/01/22 13:01:33;;;;;;;1.50;1.47;;;3.20;99.90;;;;;;5037301;28;20726;-66
2023/01/22 13:04:02;;;;;;;1.40;1.40;;;3.10;99.90;;;;;;5037182;28;20203;-65
2023/01/22 13:06:34;;;;;;;1.40;1.40;;;3.20;99.90;;;;;;5035063;28;20249;-64
2023/01/22 13:09:02;;;;;;;2.33;1.77;;;3.30;99.90;;;;;;5035765;28;20219;-64
2023/01/22 13:11:31;;;;;;;1.60;1.60;;;3.20;99.90;;;;;;5036234;28;20738;-64
2023/01/22 13:14:08;;;;;;;1.70;1.60;;;3.10;99.90;;;;;;5035859;28;20227;-68
2023/01/22 13:16:36;;;;;;;1.73;1.63;;;3.10;99.90;;;;;;5035582;28;20635;-65
2023/01/22 13:19:18;;;;;;;1.47;1.47;;;3.10;99.90;;;;;;5034548;28;20212;-65